createdAt,value
2023-03-13T00:01:42.709Z,2.60
2023-03-13T00:04:09.733Z,2.60
2023-03-13T00:06:39.605Z,2.63
2023-03-13T00:09:12.055Z,2.60
2023-03-13T00:11:39.689Z,2.63
2023-03-13T00:14:07.975Z,2.70
2023-03-13T00:16:37.436Z,2.60
2023-03-13T00:19:07.116Z,2.70
2023-03-13T00:21:37.453Z,2.63
2023-03-13T00:24:05.073Z,2.60
2023-03-13T00:26:32.455Z,2.67
2023-03-13T00:28:59.898Z,2.63
2023-03-13T00:31:32.147Z,2.60
2023-03-13T00:34:03.021Z,2.60
2023-03-13T00:36:35.306Z,2.60
2023-03-13T00:39:06.204Z,2.60
2023-03-13T00:41:35.927Z,2.57
2023-03-13T00:44:04.186Z,2.63
2023-03-13T00:46:31.636Z,2.57
2023-03-13T00:48:58.932Z,2.60
2023-03-13T00:51:27.801Z,2.60
2023-03-13T00:54:00.831Z,2.60
2023-03-13T00:56:29.591Z,2.63
2023-03-13T00:58:56.656Z,2.57
2023-03-13T01:01:32.575Z,2.57
2023-03-13T01:04:11.355Z,2.60
2023-03-13T01:06:44.748Z,2.53
2023-03-13T01:09:16.044Z,2.60
2023-03-13T01:11:45.162Z,2.67
2023-03-13T01:14:19.117Z,2.57
2023-03-13T01:16:47.107Z,2.60
2023-03-13T01:19:16.713Z,2.53
2023-03-13T01:21:47.033Z,2.60
2023-03-13T01:24:14.635Z,2.60
2023-03-13T01:26:43.255Z,2.53
2023-03-13T01:29:10.750Z,2.60
2023-03-13T01:31:38.074Z,2.60
2023-03-13T01:34:08.388Z,2.60
2023-03-13T01:36:37.780Z,2.60
2023-03-13T01:39:06.828Z,2.67
2023-03-13T01:41:33.947Z,2.53
2023-03-13T01:44:01.174Z,2.60
2023-03-13T01:46:37.308Z,2.60
2023-03-13T01:49:27.629Z,2.60
2023-03-13T01:52:31.043Z,2.60
2023-03-13T01:55:16.016Z,2.60
2023-03-13T01:57:52.380Z,2.60
2023-03-13T02:00:29.470Z,2.70
2023-03-13T02:03:04.235Z,2.60
2023-03-13T02:05:34.678Z,2.67
2023-03-13T02:08:25.348Z,2.60
2023-03-13T02:11:13.842Z,2.60
2023-03-13T02:13:41.288Z,2.67
2023-03-13T02:16:09.450Z,2.60
2023-03-13T02:18:38.231Z,2.63
2023-03-13T02:21:39.234Z,2.60
2023-03-13T02:24:32.779Z,2.60
2023-03-13T02:27:00.318Z,2.57
2023-03-13T02:29:28.064Z,2.60
2023-03-13T02:31:55.220Z,2.60
2023-03-13T02:34:30.315Z,2.60
2023-03-13T02:37:01.529Z,2.70
2023-03-13T02:39:31.623Z,2.60
2023-03-13T02:42:01.720Z,2.60
2023-03-13T02:44:28.981Z,2.70
2023-03-13T02:46:56.742Z,2.70
2023-03-13T02:49:30.222Z,2.63
2023-03-13T02:52:20.115Z,2.70
2023-03-13T02:54:54.875Z,2.67
2023-03-13T02:57:22.834Z,2.60
2023-03-13T02:59:53.216Z,2.57
2023-03-13T03:02:20.244Z,2.60
2023-03-13T03:04:47.667Z,2.67
2023-03-13T03:07:15.188Z,2.60
2023-03-13T03:09:42.340Z,2.60
2023-03-13T03:12:14.764Z,2.63
2023-03-13T03:14:43.036Z,2.67
2023-03-13T03:17:10.203Z,2.60
2023-03-13T03:19:37.631Z,2.70
2023-03-13T03:22:05.393Z,2.60
2023-03-13T03:24:33.597Z,2.70
2023-03-13T03:27:00.629Z,2.63
2023-03-13T03:29:33.556Z,2.67
2023-03-13T03:32:01.131Z,2.60
2023-03-13T03:34:29.069Z,2.67
2023-03-13T03:36:56.882Z,2.60
2023-03-13T03:39:23.856Z,2.60
2023-03-13T03:41:50.865Z,2.67
2023-03-13T03:44:18.141Z,2.67
2023-03-13T03:46:56.657Z,2.60
2023-03-13T03:49:26.162Z,2.60
2023-03-13T03:51:53.564Z,2.60
2023-03-13T03:54:26.596Z,2.60
2023-03-13T03:56:54.332Z,2.60
2023-03-13T03:59:21.653Z,2.63
2023-03-13T04:01:55.534Z,2.70
2023-03-13T04:04:25.814Z,2.70
2023-03-13T04:06:59.890Z,2.70
2023-03-13T04:09:31.795Z,2.60
2023-03-13T04:11:59.505Z,2.60
2023-03-13T04:14:26.960Z,2.67
2023-03-13T04:16:54.984Z,2.70
2023-03-13T04:19:22.061Z,2.57
2023-03-13T04:21:49.294Z,2.70
2023-03-13T04:24:19.077Z,2.63
2023-03-13T04:26:46.156Z,2.70
2023-03-13T04:29:14.699Z,2.60
2023-03-13T04:31:53.452Z,2.63
2023-03-13T04:34:53.656Z,2.70
2023-03-13T04:37:39.607Z,2.70
2023-03-13T04:40:22.332Z,2.60
2023-03-13T04:43:08.020Z,2.67
2023-03-13T04:45:54.956Z,2.63
2023-03-13T04:48:46.792Z,2.60
2023-03-13T04:51:26.523Z,2.63
2023-03-13T04:54:09.796Z,2.60
2023-03-13T04:56:57.001Z,2.57
2023-03-13T04:59:33.681Z,2.60
2023-03-13T05:02:16.375Z,2.70
2023-03-13T05:04:58.353Z,2.70
2023-03-13T05:07:48.538Z,2.70
2023-03-13T05:10:37.713Z,2.67
2023-03-13T05:13:09.432Z,2.70
2023-03-13T05:15:52.355Z,2.60
2023-03-13T05:18:45.458Z,2.63
2023-03-13T05:21:33.280Z,2.60
2023-03-13T05:24:26.727Z,2.70
2023-03-13T05:27:07.517Z,2.70
2023-03-13T05:30:05.417Z,2.67
2023-03-13T05:33:05.333Z,2.67
2023-03-13T05:35:42.930Z,2.60
2023-03-13T05:38:39.033Z,2.63
2023-03-13T05:41:24.977Z,2.67
2023-03-13T05:44:21.569Z,2.60
2023-03-13T05:47:05.321Z,2.63
2023-03-13T05:49:49.357Z,2.63
2023-03-13T05:52:32.974Z,2.63
2023-03-13T05:55:30.896Z,2.60
2023-03-13T05:58:09.724Z,2.70
2023-03-13T06:00:49.149Z,2.63
2023-03-13T06:03:36.829Z,2.57
2023-03-13T06:06:05.175Z,2.60
2023-03-13T06:08:37.972Z,2.70
2023-03-13T06:11:05.690Z,2.70
2023-03-13T06:13:34.330Z,2.67
2023-03-13T06:16:08.747Z,2.60
2023-03-13T06:18:40.398Z,2.70
2023-03-13T06:21:07.382Z,2.63
2023-03-13T06:23:35.741Z,2.63
2023-03-13T06:26:03.961Z,2.60
2023-03-13T06:28:31.167Z,2.60
2023-03-13T06:31:04.888Z,2.60
2023-03-13T06:33:32.857Z,2.70
2023-03-13T06:36:02.466Z,2.70
2023-03-13T06:38:30.575Z,2.60
2023-03-13T06:40:58.211Z,2.60
2023-03-13T06:43:26.203Z,2.70
2023-03-13T06:45:53.595Z,2.60
2023-03-13T06:48:22.897Z,2.67
2023-03-13T06:50:50.419Z,2.63
2023-03-13T06:53:20.779Z,2.63
2023-03-13T06:55:49.006Z,2.60
2023-03-13T06:58:30.983Z,2.70
2023-03-13T07:01:07.017Z,2.70
2023-03-13T07:03:35.639Z,2.67
2023-03-13T07:06:03.700Z,2.60
2023-03-13T07:08:32.407Z,2.63
2023-03-13T07:11:07.536Z,2.67
2023-03-13T07:13:34.817Z,2.70
2023-03-13T07:16:08.747Z,2.70
2023-03-13T07:18:36.643Z,2.60
2023-03-13T07:21:05.564Z,2.70
2023-03-13T07:23:35.419Z,2.70
2023-03-13T07:26:11.576Z,2.63
2023-03-13T07:28:38.643Z,2.60
2023-03-13T07:31:17.297Z,2.53
2023-03-13T07:33:45.603Z,2.50
2023-03-13T07:36:15.421Z,2.60
2023-03-13T07:38:43.768Z,2.57
2023-03-13T07:41:13.560Z,2.70
2023-03-13T07:43:41.239Z,2.70
2023-03-13T07:46:14.851Z,2.70
2023-03-13T07:48:43.400Z,2.70
2023-03-13T07:51:36.870Z,2.60
2023-03-13T07:54:09.328Z,2.70
2023-03-13T07:56:36.274Z,2.70
2023-03-13T07:59:03.239Z,2.60
2023-03-13T08:01:31.483Z,2.53
2023-03-13T08:04:01.081Z,2.57
2023-03-13T08:06:35.449Z,2.57
2023-03-13T08:09:02.954Z,2.60
2023-03-13T08:11:30.288Z,2.53
2023-03-13T08:13:58.567Z,2.57
2023-03-13T08:16:33.910Z,2.53
2023-03-13T08:19:05.820Z,2.60
2023-03-13T08:21:37.262Z,2.47
2023-03-13T08:24:08.929Z,2.50
2023-03-13T08:26:39.803Z,2.57
2023-03-13T08:29:14.251Z,2.57
2023-03-13T08:31:48.695Z,2.50
2023-03-13T08:34:17.691Z,2.50
2023-03-13T08:36:45.536Z,2.50
2023-03-13T08:39:21.995Z,2.53
2023-03-13T08:41:49.786Z,2.53
2023-03-13T08:44:20.291Z,2.50
2023-03-13T08:46:49.131Z,2.50
2023-03-13T08:49:17.484Z,2.57
2023-03-13T08:51:44.542Z,2.50
2023-03-13T08:54:12.076Z,2.43
2023-03-13T08:56:40.818Z,2.50
2023-03-13T08:59:07.927Z,2.50
2023-03-13T09:03:53.103Z,2.43
2023-03-13T09:06:20.786Z,2.47
2023-03-13T09:08:48.328Z,2.40
2023-03-13T09:11:21.464Z,2.47
2023-03-13T09:13:51.269Z,2.50
2023-03-13T09:16:25.524Z,2.47
2023-03-13T09:18:54.082Z,2.47
2023-03-13T09:21:34.749Z,2.50
2023-03-13T09:24:02.284Z,2.50
2023-03-13T09:26:30.118Z,2.60
2023-03-13T09:28:57.905Z,2.40
2023-03-13T09:31:29.833Z,2.40
2023-03-13T09:33:57.365Z,2.40
2023-03-13T09:36:25.840Z,2.40
2023-03-13T09:38:57.109Z,2.47
2023-03-13T09:41:56.724Z,2.37
2023-03-13T09:44:32.899Z,2.50
2023-03-13T09:47:17.504Z,2.40
2023-03-13T09:49:57.134Z,2.57
2023-03-13T09:52:43.638Z,2.40
2023-03-13T09:55:21.452Z,2.33
2023-03-13T09:58:09.004Z,2.40
2023-03-13T10:00:41.172Z,2.50
2023-03-13T10:03:23.983Z,2.53
2023-03-13T10:05:57.587Z,2.40
2023-03-13T10:08:32.669Z,2.50
2023-03-13T10:11:16.981Z,2.43
2023-03-13T10:14:05.361Z,2.40
2023-03-13T10:16:39.307Z,2.53
2023-03-13T10:19:31.841Z,2.50
2023-03-13T10:22:04.334Z,2.47
2023-03-13T10:24:42.875Z,2.57
2023-03-13T10:27:11.809Z,2.37
2023-03-13T10:29:39.933Z,2.50
2023-03-13T10:32:11.225Z,2.50
2023-03-13T10:34:57.725Z,2.40
2023-03-13T10:37:33.473Z,2.40
2023-03-13T10:40:26.534Z,2.37
2023-03-13T10:43:26.134Z,2.40
2023-03-13T10:45:53.938Z,2.40
2023-03-13T10:48:30.029Z,2.40
2023-03-13T10:50:57.806Z,2.40
2023-03-13T10:53:28.796Z,2.40
2023-03-13T10:56:15.002Z,2.50
2023-03-13T10:58:49.989Z,2.40
2023-03-13T11:01:33.503Z,2.43
2023-03-13T11:04:34.041Z,2.37
2023-03-13T11:07:21.582Z,2.37
2023-03-13T11:10:29.694Z,2.37
2023-03-13T11:12:58.845Z,2.40
2023-03-13T11:15:57.163Z,2.40
2023-03-13T11:19:25.092Z,2.40
2023-03-13T11:22:13.775Z,2.47
2023-03-13T11:24:43.239Z,2.43
2023-03-13T11:27:55.915Z,2.60
2023-03-13T11:31:01.805Z,2.40
2023-03-13T11:33:57.385Z,2.50
2023-03-13T11:37:10.168Z,2.43
2023-03-13T11:40:21.173Z,2.40
2023-03-13T11:43:25.461Z,2.40
2023-03-13T11:46:27.566Z,2.30
2023-03-13T11:49:31.428Z,2.30
2023-03-13T11:52:40.607Z,2.47
2023-03-13T11:56:16.718Z,2.50
2023-03-13T11:59:51.521Z,2.40
2023-03-13T12:02:44.366Z,2.57
2023-03-13T12:05:19.313Z,2.57
2023-03-13T12:08:28.379Z,2.43
2023-03-13T12:11:29.132Z,2.40
2023-03-13T12:14:03.877Z,2.43
2023-03-13T12:16:49.308Z,2.40
2023-03-13T12:19:32.457Z,2.50
2023-03-13T12:22:19.731Z,2.30
2023-03-13T12:25:09.701Z,2.40
2023-03-13T12:27:52.834Z,2.43
2023-03-13T12:30:39.164Z,2.40
2023-03-13T12:33:24.468Z,2.37
2023-03-13T12:36:06.811Z,2.60
2023-03-13T12:38:44.342Z,2.50
2023-03-13T12:41:25.913Z,2.50
2023-03-13T12:44:07.885Z,2.40
2023-03-13T12:47:27.896Z,2.30
2023-03-13T12:50:32.934Z,2.40
2023-03-13T12:53:48.766Z,2.33
2023-03-13T12:57:06.269Z,2.30
2023-03-13T12:59:42.025Z,2.50
2023-03-13T13:02:22.309Z,2.50
2023-03-13T13:04:53.357Z,2.53
2023-03-13T13:07:35.588Z,2.40
2023-03-13T13:10:11.719Z,2.57
2023-03-13T13:12:46.295Z,2.83
2023-03-13T13:15:26.726Z,2.47
2023-03-13T13:18:28.934Z,2.07
2023-03-13T13:21:02.390Z,2.10
2023-03-13T13:23:48.076Z,2.10
2023-03-13T13:26:29.466Z,2.00
2023-03-13T13:29:01.448Z,2.10
2023-03-13T13:31:50.900Z,2.10
2023-03-13T13:34:36.229Z,2.20
2023-03-13T13:37:23.485Z,2.20
2023-03-13T13:39:53.981Z,2.40
2023-03-13T13:42:32.707Z,2.50
2023-03-13T13:45:14.835Z,2.60
2023-03-13T13:47:50.505Z,2.57
2023-03-13T13:50:19.142Z,2.40
2023-03-13T13:52:47.638Z,2.40
2023-03-13T13:55:26.449Z,2.37
2023-03-13T13:58:05.973Z,2.50
2023-03-13T14:01:11.064Z,2.53
2023-03-13T14:03:43.467Z,2.50
2023-03-13T14:06:33.528Z,2.33
2023-03-13T14:09:42.947Z,2.20
2023-03-13T14:12:36.997Z,2.07
2023-03-13T14:15:22.746Z,2.03
2023-03-13T14:18:09.349Z,1.80
2023-03-13T14:20:56.978Z,1.77
2023-03-13T14:23:47.229Z,1.80
2023-03-13T14:26:29.469Z,1.90
2023-03-13T14:29:05.398Z,1.90
2023-03-13T14:31:40.053Z,2.00
2023-03-13T14:34:12.384Z,2.00
2023-03-13T14:37:16.845Z,2.07
2023-03-13T14:39:46.351Z,2.10
2023-03-13T14:42:17.848Z,2.10
2023-03-13T14:44:49.553Z,2.17
2023-03-13T14:47:30.564Z,2.13
2023-03-13T14:50:09.299Z,2.13
2023-03-13T14:52:37.368Z,2.10
2023-03-13T14:55:28.318Z,2.20
2023-03-13T14:58:28.570Z,2.20
2023-03-13T15:00:58.781Z,2.33
2023-03-13T15:03:33.280Z,2.13
2023-03-13T15:06:11.377Z,2.10
2023-03-13T15:08:43.282Z,2.20
2023-03-13T15:11:29.585Z,2.13
2023-03-13T15:13:58.084Z,2.20
2023-03-13T15:16:28.061Z,2.10
2023-03-13T15:18:56.859Z,2.00
2023-03-13T15:21:33.286Z,2.10
2023-03-13T15:24:15.346Z,2.10
2023-03-13T15:26:42.384Z,2.10
2023-03-13T15:29:11.344Z,2.17
2023-03-13T15:31:39.729Z,2.20
2023-03-13T15:34:13.890Z,2.30
2023-03-13T15:36:42.408Z,2.40
2023-03-13T15:39:20.106Z,2.40
2023-03-13T15:41:47.136Z,2.23
2023-03-13T15:44:14.398Z,2.23
2023-03-13T15:46:41.840Z,2.43
2023-03-13T15:49:12.809Z,2.30
2023-03-13T15:51:39.888Z,2.50
2023-03-13T15:54:06.945Z,2.30
2023-03-13T15:56:38.709Z,2.13
2023-03-13T15:59:12.788Z,2.17
2023-03-13T16:01:43.108Z,2.20
2023-03-13T16:04:11.766Z,2.20
2023-03-13T16:06:38.730Z,2.10
2023-03-13T16:09:07.561Z,2.10
2023-03-13T16:11:35.078Z,2.07
2023-03-13T16:14:02.671Z,2.10
2023-03-13T16:16:37.284Z,2.20
2023-03-13T16:19:04.828Z,2.10
2023-03-13T16:21:34.755Z,2.10
2023-03-13T16:24:02.301Z,2.10
2023-03-13T16:26:31.884Z,2.23
2023-03-13T16:28:59.462Z,2.20
2023-03-13T16:31:31.366Z,2.30
2023-03-13T16:34:00.943Z,2.47
2023-03-13T16:36:32.778Z,2.40
2023-03-13T16:39:05.481Z,2.43
2023-03-13T16:41:32.939Z,2.50
2023-03-13T16:43:59.912Z,2.63
2023-03-13T16:46:55.618Z,2.67
2023-03-13T16:49:26.349Z,2.80
2023-03-13T16:51:53.826Z,2.83
2023-03-13T16:54:20.823Z,2.90
2023-03-13T16:56:48.195Z,2.60
2023-03-13T16:59:18.080Z,2.60
2023-03-13T17:01:47.068Z,2.63
2023-03-13T17:04:14.598Z,2.40
2023-03-13T17:06:44.514Z,2.50
2023-03-13T17:09:17.339Z,2.53
2023-03-13T17:11:44.938Z,2.50
2023-03-13T17:14:13.214Z,2.30
2023-03-13T17:16:44.544Z,2.43
2023-03-13T17:19:16.551Z,2.40
2023-03-13T17:21:43.610Z,2.33
2023-03-13T17:24:10.632Z,2.30
2023-03-13T17:26:40.242Z,2.33
2023-03-13T17:29:16.597Z,2.30
2023-03-13T17:31:43.709Z,2.30
2023-03-13T17:34:12.905Z,2.33
2023-03-13T17:36:41.505Z,2.33
2023-03-13T17:39:14.511Z,2.30
2023-03-13T17:41:41.750Z,2.37
2023-03-13T17:44:08.755Z,2.40
2023-03-13T17:46:44.245Z,2.40
2023-03-13T17:49:14.863Z,2.43
2023-03-13T17:51:46.046Z,2.40
2023-03-13T17:54:15.673Z,2.50
2023-03-13T17:56:44.890Z,2.47
2023-03-13T17:59:18.460Z,2.50
2023-03-13T18:01:46.073Z,2.40
2023-03-13T18:04:13.544Z,2.40
2023-03-13T18:06:49.634Z,2.40
2023-03-13T18:09:22.064Z,2.40
2023-03-13T18:11:49.810Z,2.40
2023-03-13T18:14:16.803Z,2.40
2023-03-13T18:16:48.180Z,2.40
2023-03-13T18:19:22.509Z,2.40
2023-03-13T18:21:53.911Z,2.47
2023-03-13T18:24:21.834Z,2.40
2023-03-13T18:26:50.395Z,2.50
2023-03-13T18:29:27.713Z,2.50
2023-03-13T18:31:58.814Z,2.60
2023-03-13T18:34:27.264Z,2.43
2023-03-13T18:36:55.097Z,2.40
2023-03-13T18:39:22.235Z,2.47
2023-03-13T18:41:52.125Z,2.50
2023-03-13T18:44:20.769Z,2.53
2023-03-13T18:46:48.204Z,2.40
2023-03-13T18:49:21.351Z,2.43
2023-03-13T18:51:52.132Z,2.40
2023-03-13T18:54:19.391Z,2.43
2023-03-13T18:56:47.958Z,2.50
2023-03-13T18:59:21.622Z,2.50
2023-03-13T19:01:49.564Z,2.47
2023-03-13T19:04:18.094Z,2.50
2023-03-13T19:06:46.554Z,2.37
2023-03-13T19:09:42.375Z,2.50
2023-03-13T19:12:07.203Z,2.60
2023-03-13T19:14:34.265Z,2.50
2023-03-13T19:17:01.571Z,2.50
2023-03-13T19:19:31.798Z,2.47
2023-03-13T19:21:59.335Z,2.40
2023-03-13T19:24:27.260Z,2.40
2023-03-13T19:26:59.073Z,2.53
2023-03-13T19:29:28.806Z,2.43
2023-03-13T19:31:56.355Z,2.47
2023-03-13T19:34:23.621Z,2.50
2023-03-13T19:36:53.171Z,2.60
2023-03-13T19:39:23.853Z,2.50
2023-03-13T19:41:52.457Z,2.53
2023-03-13T19:44:24.725Z,2.53
2023-03-13T19:46:54.452Z,2.50
2023-03-13T19:49:21.938Z,2.50
2023-03-13T19:51:49.487Z,2.50
2023-03-13T19:54:16.968Z,2.40
2023-03-13T19:56:48.937Z,2.47
2023-03-13T19:59:23.375Z,2.50
2023-03-13T20:01:50.600Z,2.50
2023-03-13T20:04:18.211Z,2.60
2023-03-13T20:06:45.650Z,2.47
2023-03-13T20:09:25.905Z,2.50
2023-03-13T20:11:53.015Z,2.40
2023-03-13T20:14:20.466Z,2.40
2023-03-13T20:16:48.859Z,2.43
2023-03-13T20:19:16.451Z,2.43
2023-03-13T20:21:44.024Z,2.50
2023-03-13T20:24:11.025Z,2.40
2023-03-13T20:26:38.406Z,2.53
2023-03-13T20:29:05.476Z,2.60
2023-03-13T20:31:33.201Z,2.90
2023-03-13T20:34:00.898Z,2.50
2023-03-13T20:36:28.239Z,2.97
2023-03-13T20:38:58.354Z,2.40
2023-03-13T20:41:30.925Z,2.43
2023-03-13T20:43:58.541Z,2.60
2023-03-13T20:46:25.633Z,2.57
2023-03-13T20:48:53.008Z,2.60
2023-03-13T20:51:20.086Z,2.50
2023-03-13T20:53:47.980Z,2.60
2023-03-13T20:56:15.408Z,2.53
2023-03-13T20:58:42.490Z,2.53
2023-03-13T21:01:09.977Z,2.53
2023-03-13T21:03:37.365Z,2.57
2023-03-13T21:06:18.150Z,2.57
2023-03-13T21:08:46.811Z,2.53
2023-03-13T21:11:21.430Z,2.50
2023-03-13T21:13:49.554Z,2.53
2023-03-13T21:16:18.652Z,2.60
2023-03-13T21:18:46.915Z,2.70
2023-03-13T21:21:18.853Z,2.60
2023-03-13T21:23:47.003Z,2.60
2023-03-13T21:26:15.657Z,2.60
2023-03-13T21:28:43.129Z,2.50
2023-03-13T21:31:17.593Z,2.57
2023-03-13T21:33:47.030Z,2.60
2023-03-13T21:36:18.129Z,2.70
2023-03-13T21:38:45.650Z,2.60
2023-03-13T21:41:20.501Z,2.57
2023-03-13T21:43:47.805Z,2.53
2023-03-13T21:46:17.822Z,2.57
2023-03-13T21:51:13.928Z,2.50
2023-03-13T21:53:42.093Z,2.50
2023-03-13T21:56:15.041Z,2.60
2023-03-13T21:58:43.958Z,2.67
2023-03-13T22:01:12.172Z,2.77
2023-03-13T22:03:39.535Z,2.63
2023-03-13T22:06:19.618Z,2.63
2023-03-13T22:08:49.076Z,2.83
2023-03-13T22:11:16.724Z,2.60
2023-03-13T22:13:44.190Z,2.73
2023-03-13T22:16:11.847Z,2.70
2023-03-13T22:18:40.578Z,2.70
2023-03-13T22:21:08.018Z,2.70
2023-03-13T22:23:35.051Z,2.67
2023-03-13T22:26:02.167Z,2.73
2023-03-13T22:28:29.685Z,2.80
2023-03-13T22:31:01.626Z,2.70
2023-03-13T22:33:28.669Z,2.70
2023-03-13T22:35:56.081Z,2.70
2023-03-13T22:38:23.765Z,2.73
2023-03-13T22:41:03.751Z,2.90
2023-03-13T22:43:31.192Z,2.87
2023-03-13T22:45:59.763Z,2.73
2023-03-13T22:48:27.389Z,2.87
2023-03-13T22:51:03.904Z,3.00
2023-03-13T22:53:32.852Z,2.80
2023-03-13T22:56:00.199Z,2.80
2023-03-13T22:58:27.901Z,2.70
2023-03-13T23:00:56.461Z,2.73
2023-03-13T23:03:23.980Z,2.77
2023-03-13T23:05:51.193Z,2.73
2023-03-13T23:08:19.057Z,2.87
2023-03-13T23:10:47.577Z,2.90
2023-03-13T23:13:15.524Z,2.70
2023-03-13T23:15:58.509Z,2.70
2023-03-13T23:18:27.761Z,2.70
2023-03-13T23:20:55.177Z,2.63
2023-03-13T23:23:22.724Z,2.73
2023-03-13T23:25:50.598Z,2.80
2023-03-13T23:28:17.600Z,2.77
2023-03-13T23:30:45.004Z,2.80
2023-03-13T23:33:12.435Z,2.73
2023-03-13T23:35:39.854Z,2.70
2023-03-13T23:38:07.337Z,2.80
2023-03-13T23:40:34.317Z,2.80
2023-03-13T23:43:02.123Z,2.77
2023-03-13T23:45:29.616Z,2.73
2023-03-13T23:47:56.622Z,2.70
2023-03-13T23:50:24.026Z,2.70
2023-03-13T23:52:51.111Z,2.70
2023-03-13T23:55:18.158Z,2.80
2023-03-13T23:57:50.514Z,2.80
